AirNav   Everest Fuels
 
 859 users online  

63IA Davis County Hospital Heliport
Bloomfield, Iowa, USA

GOING TO BLOOMFIELD?


FAA INFORMATION EFFECTIVE 02 JANUARY 2020

Location

FAA Identifier: 63IA
Lat/Long: 40-45-34.0400N 092-24-54.1900W
40-45.567333N 092-24.903167W
40.7594556,-92.4150528
(estimated)
Elevation: 890 ft. / 271 m (estimated)
Variation: 02E (2000)
From city: 2 miles N of BLOOMFIELD, IA
Time zone: UTC -6 (UTC -5 during Daylight Saving Time)
Zip code: 52537

Heliport Operations

Heliport use: Private use. Permission required prior to landing
Activation date: 02/2002
Control tower: no
ARTCC: CHICAGO CENTER
FSS: FORT DODGE FLIGHT SERVICE STATION
Attendance: UNATNDD
Wind indicator: lighted
Segmented circle: no
Lights: FOR PERIMETER LGTS CALL 641-664-2145.

Nearby radio navigation aids

VOR radial/distance  VOR name  Freq  Var
OTMr188/16.7OTTUMWA VOR/DME111.6006E
IRKr006/38.3KIRKSVILLE VORTAC114.6006E

 
NDB name  Hdg/Dist  Freq  Var  ID
BLOOMFIELD037/1.126902EBEX -... . -..-

Heliport Services

Runway Information

Helipad H1

Dimensions: 40 x 40 ft. / 12 x 12 m
Surface: concrete
Runway edge lights: PERI
Latitude: 40-45.567333N
Longitude: 092-24.903167W
Elevation: 890.0 ft.
Traffic pattern: leftleft

Heliport Ownership and Management from official FAA records

Ownership: Privately-owned
Owner: DAVIS COUNTY HOSPITAL
507-509 N MADISON
BLOOMFIELD, IA 52537
Phone 641-664-2145
Manager: DARRIN HAMILTON
509 N MADISON
BLOOMFIELD, IA 52537
Phone 641-664-2145
OR: VERONICA FUHS

Additional Remarks

OWNER DESIRES HELIPORT NOT BE CHARTED.
MEDICAL USE.
FOR CD CTC CHICAGO ARTCC AT 630-906-8921.

Instrument Procedures

There are no published instrument procedures at 63IA.

Some nearby airports with instrument procedures:

4K6 - Bloomfield Municipal Airport (2 nm S)
03D - Memphis Memorial Airport (21 nm SE)
KOTM - Ottumwa Regional Airport (21 nm N)
4C8 - Albia Municipal Airport (21 nm NW)
KTVK - Centerville Municipal Airport (23 nm W)
 
Loc | Ops | Rwys | IFR | FBO | Links
Com | Nav | Svcs | Stats | Notes
Area around 63IA (Davis County Hospital Heliport)
 
Road maps at: MapQuest Bing Google
 
Aerial photo
No photo
 
Sectional chart

 
Airport distance calculator
Flying to Davis County Hospital Heliport? Find the distance to fly.

From to 63IA

Sunrise and sunset
Times for 25-Jan-2020
 Local
(UTC-6)
 Zulu
(UTC)
Morning civil twilight06:5712:57
Sunrise07:2713:27
Sunset17:1723:17
Evening civil twilight17:4723:47

Current date and time
Zulu (UTC)  26-Jan-2020 04:55:31
Local (UTC-6)  25-Jan-2020 22:55:31
 
METAR
KOTM 
20nm N 
260421Z AUTO 25003KT 1/4SM FZFG CLR M09/M09 A3002 RMK AO2 T10891094
KTVK 
23nm W 
260415Z AUTO 00000KT 2 1/2SM BR CLR M08/M08 A3004 RMK AO2
KFFL 
26nm NE 
260435Z AUTO 25004KT 10SM CLR M05/M05 A3003 RMK A01
KOOA 
28nm N 
260435Z AUTO 26004KT 1 1/2SM BR VV007 M07/M07 A3003 RMK AO2 T10671073
KIRK 
40nm S 
260402Z AUTO 25004KT 3SM BR CLR M10/M11 A3004 RMK AO2 T11001111
TAF
KOTM 
20nm N 
251138Z 2512/2612 30012KT P6SM OVC010 FM260100 28005KT P6SM BKN020 FM260800 27003KT P6SM BKN015 FM261100 27003KT 6SM BR OVC010
NOTAMs
Click for the latest NOTAMs
NOTAMs are issued by the DoD/FAA and will open in a separate window not controlled by AirNav.

 

 
 

Would you like to see your business listed on this page?

 If your business provides an interesting product or service to pilots, flight crews, aircraft, or users of the Davis County Hospital Heliport, you should consider listing it here.  To start the listing process, click on the button below
 
Add a business
 

Other Pages about Davis County Hospital Heliport

Update a link
 
Copyright © AirNav, LLC. All rights reserved. Privacy Policy  Contact